Time;durP1;ratioP1;P1;durP2;ratioP2;P2;SDS_P1;SDS_P2;PMS_P1;PMS_P2;Temp;Humidity;BMP_temperature;BMP_pressure;BME280_temperature;BME280_humidity;BME280_pressure;Samples;Min_cycle;Max_cycle;Signal;HPM_P1;HPM_P2
2023/10/25 00:01:25;;;;;;;2.40;1.05;;;8.90;99.90;;;;;;5085973;28;20039;-68
2023/10/25 00:03:51;;;;;;;0.30;0.30;;;8.90;99.90;;;;;;5088122;28;20134;-68
2023/10/25 00:06:16;;;;;;;0.15;0.15;;;8.90;99.90;;;;;;5088930;28;20138;-68
2023/10/25 00:08:42;;;;;;;0.38;0.30;;;8.90;99.90;;;;;;5084218;28;20498;-68
2023/10/25 00:11:08;;;;;;;0.35;0.20;;;8.90;99.90;;;;;;5087571;28;20095;-68
2023/10/25 00:13:34;;;;;;;0.17;0.17;;;8.90;99.90;;;;;;5082218;28;20043;-68
2023/10/25 00:16:00;;;;;;;0.95;0.90;;;8.80;99.90;;;;;;5090398;28;20043;-68
2023/10/25 00:18:26;;;;;;;0.20;0.20;;;8.80;99.90;;;;;;5079362;28;20074;-68
2023/10/25 00:20:52;;;;;;;0.43;0.43;;;8.80;99.90;;;;;;5081107;28;20514;-68
2023/10/25 00:23:22;;;;;;;0.75;0.45;;;8.80;99.90;;;;;;5082935;28;20027;-68
2023/10/25 00:25:49;;;;;;;1.15;0.28;;;8.80;99.90;;;;;;5082308;28;20027;-68
2023/10/25 00:28:14;;;;;;;1.27;0.73;;;8.70;99.90;;;;;;5115893;28;20043;-68
2023/10/25 00:30:40;;;;;;;0.30;0.30;;;8.70;99.90;;;;;;5083582;28;20047;-68
2023/10/25 00:33:06;;;;;;;0.40;0.40;;;8.70;99.90;;;;;;5084518;28;20036;-68
2023/10/25 00:35:31;;;;;;;0.55;0.43;;;8.70;99.90;;;;;;5090422;28;20537;-68
2023/10/25 00:37:57;;;;;;;0.65;0.30;;;8.70;99.90;;;;;;5101757;27;20122;-68
2023/10/25 00:40:23;;;;;;;0.17;0.17;;;8.70;99.90;;;;;;5089453;28;20055;-68
2023/10/25 00:42:49;;;;;;;0.40;0.40;;;8.70;99.90;;;;;;5094103;28;20482;-68
2023/10/25 00:45:15;;;;;;;0.10;0.10;;;8.70;99.90;;;;;;5090039;28;20031;-68
2023/10/25 00:47:42;;;;;;;0.32;0.32;;;8.70;99.90;;;;;;5088008;28;20126;-68
2023/10/25 00:50:10;;;;;;;0.38;0.30;;;8.60;99.90;;;;;;5094646;27;20055;-68
2023/10/25 00:52:37;;;;;;;0.30;0.30;;;8.60;99.90;;;;;;5080359;28;20032;-68
2023/10/25 00:55:03;;;;;;;0.20;0.20;;;8.60;99.90;;;;;;5082134;28;20047;-69
2023/10/25 00:57:29;;;;;;;0.75;0.65;;;8.60;99.90;;;;;;5079684;28;20376;-69
2023/10/25 00:59:55;;;;;;;1.85;0.55;;;8.50;99.90;;;;;;5081151;28;20505;-68
2023/10/25 01:02:21;;;;;;;0.88;0.70;;;8.60;99.90;;;;;;5077671;28;20044;-68
2023/10/25 01:04:46;;;;;;;2.72;0.60;;;8.50;99.90;;;;;;5076436;28;20467;-67
2023/10/25 01:07:12;;;;;;;0.63;0.55;;;8.50;99.90;;;;;;5114943;27;20039;-68
2023/10/25 01:09:38;;;;;;;0.28;0.28;;;8.50;99.90;;;;;;5112700;27;20415;-68
2023/10/25 01:12:04;;;;;;;0.45;0.28;;;8.50;99.90;;;;;;5076457;28;20040;-68
2023/10/25 01:14:33;;;;;;;0.55;0.55;;;8.60;99.90;;;;;;5080816;27;20039;-68
2023/10/25 01:16:58;;;;;;;0.63;0.50;;;8.60;99.90;;;;;;5079348;28;20043;-68
2023/10/25 01:19:24;;;;;;;0.28;0.28;;;8.60;99.90;;;;;;5077057;28;20067;-68
2023/10/25 01:21:50;;;;;;;0.22;0.10;;;8.50;99.90;;;;;;5080551;28;20075;-68
2023/10/25 01:24:16;;;;;;;0.73;0.73;;;8.50;99.90;;;;;;5083405;28;20032;-68
2023/10/25 01:26:42;;;;;;;0.77;0.68;;;8.50;99.90;;;;;;5077562;28;22273;-69
2023/10/25 01:29:07;;;;;;;0.10;0.10;;;8.50;99.90;;;;;;5086199;28;20122;-68
2023/10/25 01:31:33;;;;;;;0.10;0.10;;;8.50;99.90;;;;;;5083705;28;20035;-68
2023/10/25 01:33:59;;;;;;;0.38;0.20;;;8.50;99.90;;;;;;5116022;27;20043;-68
2023/10/25 01:36:24;;;;;;;0.10;0.10;;;8.50;99.90;;;;;;5111635;27;20038;-68
2023/10/25 01:38:50;;;;;;;1.05;1.05;;;8.50;99.90;;;;;;5116625;27;20086;-68
2023/10/25 01:41:16;;;;;;;0.25;0.25;;;8.50;99.90;;;;;;5080411;28;20068;-69
2023/10/25 01:43:42;;;;;;;1.42;0.98;;;8.50;99.90;;;;;;5079866;28;20173;-68
2023/10/25 01:46:08;;;;;;;0.38;0.38;;;8.50;99.90;;;;;;5082058;27;21574;-68
2023/10/25 01:48:37;;;;;;;0.20;0.20;;;8.50;99.90;;;;;;5082188;28;20655;-68
2023/10/25 01:51:04;;;;;;;0.20;0.20;;;8.50;99.90;;;;;;5101738;27;20577;-68
2023/10/25 01:53:29;;;;;;;0.20;0.20;;;8.50;99.90;;;;;;5074516;28;20051;-68
2023/10/25 01:55:55;;;;;;;1.17;0.52;;;8.50;99.90;;;;;;5075029;28;20044;-69
2023/10/25 01:58:20;;;;;;;0.85;0.30;;;8.40;99.90;;;;;;5075314;28;20044;-68
2023/10/25 02:00:46;;;;;;;3.05;0.65;;;8.40;99.90;;;;;;5081991;28;20058;-68
2023/10/25 02:03:11;;;;;;;0.32;0.20;;;8.40;99.90;;;;;;5078496;28;20263;-68
2023/10/25 02:05:37;;;;;;;1.00;0.93;;;8.40;99.90;;;;;;5080288;28;20036;-68
2023/10/25 02:08:03;;;;;;;1.85;0.40;;;8.40;99.90;;;;;;5078453;28;20183;-68
2023/10/25 02:10:28;;;;;;;0.90;0.85;;;8.40;99.90;;;;;;5077899;28;20063;-68
2023/10/25 02:12:54;;;;;;;0.20;0.20;;;8.30;99.90;;;;;;5077866;28;20358;-68
2023/10/25 02:15:19;;;;;;;0.10;0.10;;;8.30;99.90;;;;;;5077704;28;20040;-68
2023/10/25 02:17:45;;;;;;;3.40;3.10;;;8.30;99.90;;;;;;5069377;28;20188;-68
2023/10/25 02:20:11;;;;;;;1.17;0.68;;;8.30;99.90;;;;;;5082810;28;20122;-68
2023/10/25 02:22:37;;;;;;;0.30;0.28;;;8.20;99.90;;;;;;5088270;28;20043;-68
2023/10/25 02:25:02;;;;;;;0.32;0.32;;;8.20;99.90;;;;;;5085066;28;20040;-68
2023/10/25 02:27:28;;;;;;;0.10;0.10;;;8.20;99.90;;;;;;5079875;28;20046;-68
2023/10/25 02:29:53;;;;;;;0.50;0.32;;;8.20;99.90;;;;;;5086732;28;20051;-68
2023/10/25 02:32:19;;;;;;;0.25;0.20;;;8.10;99.90;;;;;;5091503;28;20043;-68
2023/10/25 02:34:46;;;;;;;0.20;0.20;;;8.10;99.90;;;;;;5088735;28;20039;-68
2023/10/25 02:37:12;;;;;;;0.22;0.22;;;8.10;99.90;;;;;;5127691;27;20047;-68
2023/10/25 02:39:37;;;;;;;0.20;0.20;;;8.10;99.90;;;;;;5088241;28;20051;-68
2023/10/25 02:42:04;;;;;;;0.43;0.32;;;8.00;99.90;;;;;;5092675;28;20525;-68
2023/10/25 02:44:29;;;;;;;0.30;0.30;;;8.00;99.90;;;;;;5088117;28;20502;-68
2023/10/25 02:46:56;;;;;;;0.55;0.55;;;8.00;99.90;;;;;;5091987;28;20039;-68
2023/10/25 02:49:22;;;;;;;0.30;0.30;;;8.00;99.90;;;;;;5076386;28;20040;-68
2023/10/25 02:51:47;;;;;;;0.25;0.25;;;7.90;99.90;;;;;;5080349;27;20039;-68
2023/10/25 02:54:13;;;;;;;1.35;0.68;;;7.90;99.90;;;;;;5073539;28;20138;-68
2023/10/25 02:56:38;;;;;;;0.20;0.20;;;7.90;99.90;;;;;;5075709;28;20092;-68
2023/10/25 02:59:04;;;;;;;0.20;0.20;;;7.80;99.90;;;;;;5080394;28;20055;-68
2023/10/25 03:01:30;;;;;;;0.43;0.40;;;7.80;99.90;;;;;;5097031;28;20036;-68
2023/10/25 03:03:55;;;;;;;0.13;0.13;;;7.80;99.90;;;;;;5081291;28;20036;-68
2023/10/25 03:06:21;;;;;;;1.65;0.75;;;7.90;99.90;;;;;;5081938;28;20111;-68
2023/10/25 03:08:46;;;;;;;0.20;0.20;;;7.80;99.90;;;;;;5081914;28;20466;-68
2023/10/25 03:11:12;;;;;;;0.98;0.30;;;7.80;99.90;;;;;;5091596;28;20039;-68
2023/10/25 03:13:37;;;;;;;0.30;0.30;;;7.80;99.90;;;;;;5088699;28;20071;-68
2023/10/25 03:16:04;;;;;;;0.77;0.50;;;7.80;99.90;;;;;;5085878;28;20425;-68
2023/10/25 03:18:30;;;;;;;1.08;1.08;;;7.80;99.90;;;;;;5111105;27;20100;-68
2023/10/25 03:21:03;;;;;;;3.75;1.13;;;7.80;99.90;;;;;;5087941;28;20047;-68
2023/10/25 03:23:30;;;;;;;0.10;0.10;;;7.80;99.90;;;;;;5089286;28;20043;-68
2023/10/25 03:26:02;;;;;;;0.63;0.28;;;7.80;99.90;;;;;;5077628;28;20066;-68
2023/10/25 03:28:27;;;;;;;0.30;0.30;;;7.80;99.90;;;;;;5084493;28;20036;-68
2023/10/25 03:30:53;;;;;;;0.70;0.30;;;7.80;99.90;;;;;;5082441;28;20583;-68
2023/10/25 03:33:18;;;;;;;0.68;0.68;;;7.80;99.90;;;;;;5072445;28;20043;-68
2023/10/25 03:35:51;;;;;;;0.65;0.65;;;7.70;99.90;;;;;;5062169;28;20039;-68
2023/10/25 03:38:16;;;;;;;;;;;7.70;99.90;;;;;;5084687;28;20482;-68
2023/10/25 03:40:44;;;;;;;0.52;0.38;;;7.70;99.90;;;;;;5117138;28;19919;-68
2023/10/25 03:43:10;;;;;;;3.92;0.52;;;7.70;99.90;;;;;;5078994;28;20560;-68
2023/10/25 03:45:35;;;;;;;0.20;0.20;;;7.70;99.90;;;;;;5076859;28;20063;-68
2023/10/25 03:48:01;;;;;;;4.22;0.85;;;7.70;99.90;;;;;;5079749;28;20036;-68
2023/10/25 03:50:26;;;;;;;1.40;0.40;;;7.70;99.90;;;;;;5116055;28;20031;-68
2023/10/25 03:52:52;;;;;;;0.73;0.73;;;7.70;99.90;;;;;;5079847;28;20047;-68
2023/10/25 03:55:17;;;;;;;2.03;0.60;;;7.60;99.90;;;;;;5075161;28;20118;-68
2023/10/25 03:57:43;;;;;;;0.08;0.08;;;7.60;99.90;;;;;;5076661;28;20044;-68
2023/10/25 04:00:09;;;;;;;0.10;0.10;;;7.60;99.90;;;;;;5077614;28;20044;-68
2023/10/25 04:02:35;;;;;;;0.30;0.30;;;7.60;99.90;;;;;;5115748;27;20039;-68
2023/10/25 04:05:00;;;;;;;0.68;0.60;;;7.60;99.90;;;;;;5083890;28;20036;-68
2023/10/25 04:07:26;;;;;;;0.38;0.38;;;7.60;99.90;;;;;;5080804;28;20067;-67
2023/10/25 04:09:51;;;;;;;0.52;0.40;;;7.60;99.90;;;;;;5091832;28;20031;-67
2023/10/25 04:12:17;;;;;;;0.20;0.20;;;7.60;99.90;;;;;;5093574;28;20092;-67
2023/10/25 04:14:46;;;;;;;0.20;0.20;;;7.60;99.90;;;;;;5093230;27;20474;-68
2023/10/25 04:17:12;;;;;;;0.30;0.30;;;7.60;99.90;;;;;;5116637;27;20043;-68
2023/10/25 04:19:38;;;;;;;1.08;0.60;;;7.60;99.90;;;;;;5084454;27;20048;-68
2023/10/25 04:22:05;;;;;;;0.10;0.10;;;7.50;99.90;;;;;;5085110;28;20053;-68
2023/10/25 04:24:30;;;;;;;2.65;0.88;;;7.50;99.90;;;;;;5077022;28;20078;-68
2023/10/25 04:26:56;;;;;;;0.30;0.30;;;7.50;99.90;;;;;;5083383;28;20043;-68
2023/10/25 04:29:21;;;;;;;0.13;0.13;;;7.50;99.90;;;;;;5084648;27;20039;-68
2023/10/25 04:31:47;;;;;;;1.10;0.38;;;7.50;99.90;;;;;;5077325;28;20368;-68
2023/10/25 04:34:12;;;;;;;1.83;0.68;;;7.50;99.90;;;;;;5080632;28;20035;-68
2023/10/25 04:36:38;;;;;;;1.00;0.20;;;7.50;99.90;;;;;;5088287;27;20048;-68
2023/10/25 04:39:04;;;;;;;0.22;0.22;;;7.50;99.90;;;;;;5069836;28;20065;-68
2023/10/25 04:41:31;;;;;;;0.25;0.25;;;7.40;99.90;;;;;;5079432;28;20039;-68
2023/10/25 04:43:57;;;;;;;0.40;0.40;;;7.40;99.90;;;;;;5082892;28;20398;-68
2023/10/25 04:46:23;;;;;;;0.40;0.25;;;7.50;99.90;;;;;;5084311;28;20043;-68
2023/10/25 04:48:49;;;;;;;0.80;0.80;;;7.40;99.90;;;;;;5074580;28;20039;-68
2023/10/25 04:51:15;;;;;;;0.45;0.38;;;7.40;99.90;;;;;;5075668;28;20085;-68
2023/10/25 04:53:41;;;;;;;0.17;0.17;;;7.40;99.90;;;;;;5081855;28;20100;-68
2023/10/25 04:56:07;;;;;;;0.38;0.25;;;7.40;99.90;;;;;;5078673;28;20041;-68
2023/10/25 04:58:32;;;;;;;0.57;0.35;;;7.40;99.90;;;;;;5120392;27;20040;-68
2023/10/25 05:00:58;;;;;;;0.25;0.25;;;7.40;99.90;;;;;;5090124;28;20516;-68
2023/10/25 05:03:23;;;;;;;0.80;0.50;;;7.40;99.90;;;;;;5089167;28;20050;-68
2023/10/25 05:05:49;;;;;;;0.20;0.20;;;7.40;99.90;;;;;;5088562;28;20354;-68
2023/10/25 05:08:15;;;;;;;0.25;0.25;;;7.30;99.90;;;;;;5078089;28;20054;-68
2023/10/25 05:10:41;;;;;;;0.38;0.38;;;7.30;99.90;;;;;;5082048;28;20044;-68
2023/10/25 05:13:07;;;;;;;2.15;1.70;;;7.30;99.90;;;;;;5084428;27;20475;-67
2023/10/25 05:15:35;;;;;;;0.52;0.13;;;7.30;99.90;;;;;;5112165;27;20440;-67
2023/10/25 05:18:01;;;;;;;0.43;0.22;;;7.20;99.90;;;;;;5108999;27;20036;-67
2023/10/25 05:20:27;;;;;;;0.63;0.40;;;7.20;99.90;;;;;;5075166;27;20035;-68
2023/10/25 05:22:55;;;;;;;0.22;0.22;;;7.20;99.90;;;;;;5085301;28;20051;-68
2023/10/25 05:25:21;;;;;;;0.30;0.30;;;7.20;99.90;;;;;;5086623;28;20063;-68
2023/10/25 05:27:47;;;;;;;0.30;0.30;;;7.20;99.90;;;;;;5087912;28;20031;-68
2023/10/25 05:30:15;;;;;;;2.13;0.77;;;7.10;99.90;;;;;;5104709;28;20038;-67
2023/10/25 05:32:46;;;;;;;0.20;0.20;;;7.10;99.90;;;;;;5084889;27;20036;-67
2023/10/25 05:35:12;;;;;;;0.80;0.25;;;7.10;99.90;;;;;;5123913;27;20085;-67
2023/10/25 05:37:38;;;;;;;2.05;0.60;;;7.10;99.90;;;;;;5088591;28;20050;-68
2023/10/25 05:40:04;;;;;;;0.30;0.20;;;7.10;99.90;;;;;;5085441;28;20118;-67
2023/10/25 05:42:38;;;;;;;1.13;1.10;;;7.10;99.90;;;;;;5090283;28;20039;-67
2023/10/25 05:45:03;;;;;;;0.20;0.20;;;7.10;99.90;;;;;;5086299;28;20510;-68
2023/10/25 05:47:29;;;;;;;0.10;0.10;;;7.10;99.90;;;;;;5089804;28;20120;-67
2023/10/25 05:49:55;;;;;;;0.50;0.50;;;7.00;99.90;;;;;;5088018;28;20032;-67
2023/10/25 05:52:21;;;;;;;0.10;0.10;;;7.00;99.90;;;;;;5082585;28;20610;-67
2023/10/25 05:54:47;;;;;;;1.27;0.35;;;7.00;99.90;;;;;;5092534;28;20134;-67
2023/10/25 05:57:13;;;;;;;0.40;0.20;;;7.00;99.90;;;;;;5087099;27;20039;-67
2023/10/25 05:59:40;;;;;;;0.93;0.25;;;7.00;99.90;;;;;;5099700;28;20110;-67
2023/10/25 06:02:14;;;;;;;0.38;0.30;;;7.00;99.90;;;;;;5078883;28;20032;-67
2023/10/25 06:04:40;;;;;;;1.73;0.70;;;7.00;99.90;;;;;;5083046;28;20542;-67
2023/10/25 06:07:07;;;;;;;0.15;0.15;;;6.90;99.90;;;;;;5091458;28;20047;-67
2023/10/25 06:09:34;;;;;;;0.55;0.30;;;6.90;99.90;;;;;;5088245;27;20428;-67
2023/10/25 06:11:59;;;;;;;0.20;0.20;;;6.90;99.90;;;;;;5077438;28;20402;-67
2023/10/25 06:14:27;;;;;;;0.30;0.25;;;6.90;99.90;;;;;;5087023;28;20042;-68
2023/10/25 06:16:53;;;;;;;0.38;0.17;;;6.90;99.90;;;;;;5116989;27;20055;-68
2023/10/25 06:19:18;;;;;;;0.30;0.30;;;6.90;99.90;;;;;;5085981;28;20054;-67
2023/10/25 06:21:44;;;;;;;0.38;0.22;;;6.90;99.90;;;;;;5085749;28;20039;-67
2023/10/25 06:24:09;;;;;;;0.70;0.20;;;6.90;99.90;;;;;;5091495;28;20072;-67
2023/10/25 06:26:35;;;;;;;0.10;0.10;;;6.90;99.90;;;;;;5090108;27;20198;-67
2023/10/25 06:29:00;;;;;;;0.45;0.45;;;6.90;99.90;;;;;;5099124;27;20039;-67
2023/10/25 06:31:26;;;;;;;0.30;0.30;;;6.90;99.90;;;;;;5097603;28;20099;-67
2023/10/25 06:33:51;;;;;;;0.22;0.22;;;6.90;99.90;;;;;;5101181;27;20109;-68
2023/10/25 06:36:17;;;;;;;0.43;0.35;;;6.90;99.90;;;;;;5091997;28;20409;-67
2023/10/25 06:38:43;;;;;;;0.35;0.35;;;6.90;99.90;;;;;;5090876;28;20522;-67
2023/10/25 06:41:22;;;;;;;0.50;0.25;;;6.90;99.90;;;;;;5097038;27;20059;-67
2023/10/25 06:43:48;;;;;;;0.20;0.20;;;6.90;99.90;;;;;;5112758;27;20031;-68
2023/10/25 06:46:14;;;;;;;0.30;0.30;;;6.90;99.90;;;;;;5086735;28;20406;-68
2023/10/25 06:48:40;;;;;;;0.10;0.10;;;6.90;99.90;;;;;;5087451;28;20039;-67
2023/10/25 06:51:08;;;;;;;0.17;0.13;;;6.90;99.90;;;;;;5101793;27;20088;-67
2023/10/25 06:53:36;;;;;;;0.10;0.10;;;6.90;99.90;;;;;;5096467;27;20297;-67
2023/10/25 06:56:02;;;;;;;0.10;0.10;;;6.90;99.90;;;;;;5125175;27;20043;-67
2023/10/25 06:58:28;;;;;;;0.52;0.15;;;6.90;99.90;;;;;;5091687;28;20461;-67
2023/10/25 07:00:55;;;;;;;0.13;0.10;;;6.90;99.90;;;;;;5087857;28;20104;-67
2023/10/25 07:03:26;;;;;;;0.15;0.10;;;6.90;99.90;;;;;;5088685;28;20122;-67
2023/10/25 07:05:55;;;;;;;0.20;0.20;;;6.90;99.90;;;;;;5077839;28;20051;-67
2023/10/25 07:08:21;;;;;;;0.10;0.10;;;6.90;99.90;;;;;;5088686;28;20043;-67
2023/10/25 07:10:47;;;;;;;0.30;0.30;;;6.90;99.90;;;;;;5089130;28;20418;-67
2023/10/25 07:13:13;;;;;;;4.28;0.30;;;6.90;99.90;;;;;;5085237;28;20046;-67
2023/10/25 07:15:38;;;;;;;0.13;0.13;;;6.90;99.90;;;;;;5084007;28;20564;-67
2023/10/25 07:18:04;;;;;;;0.10;0.10;;;7.00;99.90;;;;;;5119642;27;20047;-67
2023/10/25 07:20:31;;;;;;;0.52;0.35;;;7.00;99.90;;;;;;5088978;28;20521;-67
2023/10/25 07:22:57;;;;;;;0.55;0.25;;;7.00;99.90;;;;;;5089165;28;20122;-68
2023/10/25 07:25:22;;;;;;;0.10;0.10;;;7.10;99.90;;;;;;5076899;28;20139;-67
2023/10/25 07:27:48;;;;;;;0.22;0.22;;;7.10;99.90;;;;;;5083115;28;20565;-67
2023/10/25 07:30:13;;;;;;;0.10;0.10;;;7.20;99.90;;;;;;5089444;28;20044;-68
2023/10/25 07:32:40;;;;;;;0.63;0.43;;;7.20;99.90;;;;;;5073223;28;20036;-67
2023/10/25 07:35:05;;;;;;;0.17;0.17;;;7.20;99.90;;;;;;5087101;28;20118;-67
2023/10/25 07:37:31;;;;;;;0.10;0.10;;;7.30;99.90;;;;;;5076641;28;20454;-67
2023/10/25 07:39:57;;;;;;;0.00;0.00;;;7.30;99.90;;;;;;5088902;28;20046;-67
2023/10/25 07:42:22;;;;;;;0.20;0.20;;;7.40;99.90;;;;;;5085389;28;20122;-67
2023/10/25 07:44:48;;;;;;;0.10;0.10;;;7.50;99.90;;;;;;5081772;28;20032;-67
2023/10/25 07:47:14;;;;;;;0.70;0.38;;;7.50;99.90;;;;;;5085937;28;20078;-67
2023/10/25 07:49:45;;;;;;;0.20;0.20;;;7.60;99.90;;;;;;5105297;27;20491;-67
2023/10/25 07:52:11;;;;;;;0.65;0.65;;;7.60;99.90;;;;;;5121288;27;20035;-67
2023/10/25 07:54:37;;;;;;;4.95;0.30;;;7.70;99.90;;;;;;5088341;28;20385;-67
2023/10/25 07:57:03;;;;;;;0.10;0.10;;;7.80;99.90;;;;;;5091831;28;20039;-67
2023/10/25 07:59:28;;;;;;;0.10;0.10;;;7.80;99.90;;;;;;5089588;28;20398;-67
2023/10/25 08:01:56;;;;;;;1.65;0.22;;;7.90;99.90;;;;;;5106889;28;20079;-68
2023/10/25 08:04:21;;;;;;;0.57;0.22;;;8.00;99.90;;;;;;5089005;28;20028;-67
2023/10/25 08:06:47;;;;;;;0.20;0.20;;;8.10;99.90;;;;;;5083156;28;20084;-67
2023/10/25 08:09:12;;;;;;;0.20;0.20;;;8.10;99.90;;;;;;5079937;28;20035;-67
2023/10/25 08:11:38;;;;;;;0.10;0.10;;;8.20;99.90;;;;;;5087933;28;20039;-68
2023/10/25 08:14:04;;;;;;;0.30;0.25;;;8.30;99.90;;;;;;5090504;28;20079;-67
2023/10/25 08:16:29;;;;;;;0.10;0.10;;;8.30;99.90;;;;;;5094582;28;20036;-67
2023/10/25 08:18:55;;;;;;;0.10;0.10;;;8.40;99.90;;;;;;5089943;28;20075;-68
2023/10/25 08:21:21;;;;;;;0.10;0.10;;;8.40;99.90;;;;;;5093498;27;20043;-68
2023/10/25 08:23:51;;;;;;;0.20;0.20;;;8.50;99.90;;;;;;5084066;28;20059;-67
2023/10/25 08:26:21;;;;;;;0.00;0.00;;;8.50;99.90;;;;;;5115734;27;20036;-67
2023/10/25 08:28:47;;;;;;;0.13;0.13;;;8.60;99.90;;;;;;5086978;27;20046;-68
2023/10/25 08:31:13;;;;;;;0.10;0.10;;;8.70;99.90;;;;;;5114094;27;20044;-68
2023/10/25 08:33:39;;;;;;;0.25;0.25;;;8.70;99.90;;;;;;5085404;28;20353;-68
2023/10/25 08:36:06;;;;;;;0.20;0.20;;;8.80;99.90;;;;;;5091101;28;20100;-68
2023/10/25 08:38:31;;;;;;;0.10;0.10;;;8.80;99.90;;;;;;5074581;28;20503;-68
2023/10/25 08:41:04;;;;;;;0.10;0.10;;;8.90;99.90;;;;;;5088199;27;20050;-68
2023/10/25 08:43:33;;;;;;;;;;;9.00;99.90;;;;;;5114892;27;20047;-68
2023/10/25 08:46:00;;;;;;;0.15;0.15;;;9.10;99.90;;;;;;5086591;28;20011;-67
2023/10/25 08:48:26;;;;;;;0.17;0.17;;;9.10;99.90;;;;;;5088147;27;20175;-67
2023/10/25 08:50:52;;;;;;;2.13;0.10;;;9.20;99.90;;;;;;5087360;27;20039;-67
2023/10/25 08:53:25;;;;;;;0.08;0.08;;;9.30;99.90;;;;;;5087190;27;20048;-67
2023/10/25 08:55:52;;;;;;;0.10;0.10;;;9.30;99.90;;;;;;5109978;27;20040;-68
2023/10/25 08:58:21;;;;;;;0.20;0.20;;;9.40;99.90;;;;;;5117783;27;20038;-68
2023/10/25 09:00:48;;;;;;;0.22;0.22;;;9.50;99.90;;;;;;5088887;27;20070;-68
2023/10/25 09:03:31;;;;;;;0.32;0.32;;;9.60;99.90;;;;;;5123807;27;20050;-68
2023/10/25 09:06:01;;;;;;;1.80;0.70;;;9.70;99.90;;;;;;5088430;27;20027;-68
2023/10/25 09:08:27;;;;;;;0.03;0.03;;;9.80;99.90;;;;;;5086447;28;20408;-67
2023/10/25 09:10:57;;;;;;;0.10;0.10;;;9.90;99.90;;;;;;5088742;27;20109;-68
2023/10/25 09:13:26;;;;;;;0.60;0.32;;;10.00;99.90;;;;;;5069673;28;20043;-68
2023/10/25 09:15:52;;;;;;;0.20;0.20;;;10.10;99.90;;;;;;5068404;28;20378;-67
2023/10/25 09:18:17;;;;;;;0.75;0.30;;;10.20;99.90;;;;;;5085559;27;20035;-67
2023/10/25 09:20:49;;;;;;;0.10;0.10;;;10.30;99.90;;;;;;5088626;27;20031;-67
2023/10/25 09:23:15;;;;;;;0.20;0.10;;;10.40;99.90;;;;;;5110227;27;20090;-67
2023/10/25 09:25:40;;;;;;;0.10;0.10;;;10.50;99.90;;;;;;5083645;28;20039;-67
2023/10/25 09:28:27;;;;;;;0.68;0.40;;;10.60;99.90;;;;;;5085358;28;20035;-67
2023/10/25 09:30:53;;;;;;;0.32;0.20;;;10.70;99.90;;;;;;5089633;28;20054;-67
2023/10/25 09:33:19;;;;;;;0.40;0.40;;;10.90;99.90;;;;;;5091882;28;20131;-67
2023/10/25 09:35:44;;;;;;;0.25;0.25;;;10.90;99.90;;;;;;5091068;27;20118;-67
2023/10/25 09:38:10;;;;;;;0.10;0.10;;;11.00;99.90;;;;;;5097647;27;20126;-67
2023/10/25 09:40:38;;;;;;;0.20;0.20;;;11.10;99.90;;;;;;5110965;27;20035;-67
2023/10/25 09:43:14;;;;;;;0.25;0.25;;;11.20;99.90;;;;;;5084146;28;20039;-67
2023/10/25 09:45:42;;;;;;;0.03;0.03;;;11.20;99.90;;;;;;5086488;28;20035;-68
2023/10/25 09:48:11;;;;;;;0.38;0.35;;;11.30;99.90;;;;;;5096139;27;20063;-67
2023/10/25 09:50:41;;;;;;;0.20;0.20;;;11.40;99.90;;;;;;5089559;28;20035;-67
2023/10/25 09:53:38;;;;;;;0.95;0.17;;;11.40;99.90;;;;;;5085418;28;20032;-67
2023/10/25 09:56:04;;;;;;;0.60;0.22;;;11.50;99.90;;;;;;5083216;28;20056;-67
2023/10/25 09:58:34;;;;;;;0.28;0.28;;;11.60;99.90;;;;;;5081957;28;20042;-67
2023/10/25 10:01:00;;;;;;;0.30;0.30;;;11.60;99.90;;;;;;5079799;28;20078;-67
2023/10/25 10:03:52;;;;;;;0.25;0.25;;;11.60;99.90;;;;;;5084582;28;20047;-68
2023/10/25 10:06:44;;;;;;;0.28;0.28;;;11.60;99.90;;;;;;5087375;28;20119;-67
2023/10/25 10:09:22;;;;;;;20.50;0.90;;;11.70;99.90;;;;;;5114967;27;20039;-67
2023/10/25 10:11:56;;;;;;;0.70;0.55;;;11.60;99.90;;;;;;5082135;28;20047;-67
2023/10/25 10:14:32;;;;;;;1.67;0.30;;;11.60;99.90;;;;;;5073532;28;20401;-67
2023/10/25 10:17:06;;;;;;;0.63;0.63;;;11.70;99.90;;;;;;5088853;28;20134;-67
2023/10/25 10:19:33;;;;;;;0.40;0.40;;;11.70;99.90;;;;;;5119606;27;20434;-67
2023/10/25 10:22:13;;;;;;;0.35;0.35;;;11.60;99.90;;;;;;5083450;28;20104;-67
2023/10/25 10:24:41;;;;;;;0.22;0.22;;;11.70;99.90;;;;;;5086615;28;20028;-67
2023/10/25 10:27:07;;;;;;;0.25;0.20;;;11.60;99.90;;;;;;5116957;27;20304;-67
2023/10/25 10:29:33;;;;;;;0.13;0.13;;;11.70;99.90;;;;;;5087444;28;20039;-67
2023/10/25 10:32:00;;;;;;;0.03;0.03;;;11.60;99.90;;;;;;5091021;28;20048;-67
2023/10/25 10:34:56;;;;;;;0.10;0.10;;;11.70;99.90;;;;;;5091024;28;20047;-67
2023/10/25 10:37:24;;;;;;;0.10;0.10;;;11.70;99.90;;;;;;5093267;28;20050;-67
2023/10/25 10:39:56;;;;;;;0.40;0.35;;;11.70;99.90;;;;;;5084871;28;20084;-68
2023/10/25 10:42:32;;;;;;;0.13;0.13;;;11.70;99.90;;;;;;5092215;28;20430;-67
2023/10/25 10:45:00;;;;;;;0.35;0.30;;;11.70;99.90;;;;;;5081304;28;20058;-67
2023/10/25 10:47:51;;;;;;;0.35;0.35;;;11.60;99.90;;;;;;5080642;28;20118;-67
2023/10/25 10:50:19;;;;;;;0.80;0.50;;;11.70;99.90;;;;;;5072234;28;20054;-67
2023/10/25 10:52:46;;;;;;;0.30;0.20;;;11.60;99.90;;;;;;5073022;28;20048;-67
2023/10/25 10:55:17;;;;;;;0.60;0.60;;;11.60;99.90;;;;;;5073604;28;20040;-66
2023/10/25 10:57:43;;;;;;;0.20;0.20;;;11.60;99.90;;;;;;5091934;27;20039;-67
2023/10/25 11:00:13;;;;;;;0.70;0.40;;;11.60;99.90;;;;;;5077375;28;20336;-67
2023/10/25 11:02:40;;;;;;;0.45;0.30;;;11.60;99.90;;;;;;5119353;27;20040;-67
2023/10/25 11:05:07;;;;;;;0.10;0.10;;;11.60;99.90;;;;;;5085734;28;20402;-67
2023/10/25 11:07:33;;;;;;;0.10;0.10;;;11.60;99.90;;;;;;5111537;27;20040;-67
2023/10/25 11:09:59;;;;;;;0.10;0.10;;;11.60;99.90;;;;;;5086486;28;20120;-67
2023/10/25 11:12:25;;;;;;;0.17;0.17;;;11.50;99.90;;;;;;5085126;28;20088;-67
2023/10/25 11:14:50;;;;;;;0.20;0.20;;;11.50;99.90;;;;;;5089055;28;20047;-67
2023/10/25 11:17:16;;;;;;;0.52;0.52;;;11.50;99.90;;;;;;5089512;28;20066;-67
2023/10/25 11:19:45;;;;;;;0.75;0.43;;;11.50;99.90;;;;;;5084450;28;20048;-67
2023/10/25 11:22:11;;;;;;;0.40;0.40;;;11.50;99.90;;;;;;5085867;28;20044;-67
2023/10/25 11:24:36;;;;;;;0.25;0.15;;;11.50;99.90;;;;;;5114081;27;20057;-67
2023/10/25 11:27:03;;;;;;;0.10;0.10;;;11.40;99.90;;;;;;5088860;28;20136;-67
2023/10/25 11:29:31;;;;;;;0.75;0.20;;;11.40;99.90;;;;;;5070765;28;20035;-67
2023/10/25 11:32:01;;;;;;;0.57;0.45;;;11.40;99.90;;;;;;5076373;28;20287;-67
2023/10/25 11:34:31;;;;;;;1.13;1.10;;;11.30;99.90;;;;;;5085287;28;20429;-67
2023/10/25 11:36:57;;;;;;;0.15;0.15;;;11.30;99.90;;;;;;5121959;28;20172;-67
2023/10/25 11:39:23;;;;;;;0.85;0.47;;;11.30;99.90;;;;;;5083652;28;20126;-67
2023/10/25 11:41:48;;;;;;;0.25;0.25;;;11.30;99.90;;;;;;5088532;28;20048;-67
2023/10/25 11:44:20;;;;;;;2.28;0.30;;;11.20;99.90;;;;;;5079790;28;20414;-67
2023/10/25 11:46:46;;;;;;;0.50;0.50;;;11.20;99.90;;;;;;5090279;28;20061;-67
2023/10/25 11:49:16;;;;;;;0.47;0.47;;;11.10;99.90;;;;;;5066407;28;20138;-66
2023/10/25 11:51:42;;;;;;;0.75;0.47;;;11.10;99.90;;;;;;5090056;28;20035;-66
2023/10/25 11:54:08;;;;;;;0.08;0.08;;;11.10;99.90;;;;;;5085905;28;20495;-66
2023/10/25 11:56:33;;;;;;;0.13;0.13;;;11.00;99.90;;;;;;5090517;28;20043;-67
2023/10/25 11:58:59;;;;;;;0.15;0.13;;;11.10;99.90;;;;;;5088564;28;20040;-67
2023/10/25 12:01:24;;;;;;;0.25;0.25;;;11.00;99.90;;;;;;5089810;28;20036;-67
2023/10/25 12:03:50;;;;;;;0.50;0.50;;;11.00;99.90;;;;;;5089096;28;20394;-67
2023/10/25 12:06:16;;;;;;;0.35;0.35;;;11.00;99.90;;;;;;5081596;28;20398;-67
2023/10/25 12:08:42;;;;;;;1.02;0.45;;;11.00;99.90;;;;;;5082947;28;20062;-66
2023/10/25 12:11:11;;;;;;;0.35;0.35;;;10.90;99.90;;;;;;5105069;28;20047;-66
2023/10/25 12:13:41;;;;;;;0.98;0.65;;;10.90;99.90;;;;;;5087446;28;20503;-66
2023/10/25 12:16:08;;;;;;;0.10;0.10;;;10.90;99.90;;;;;;5087196;28;20044;-67
2023/10/25 12:18:35;;;;;;;1.00;0.90;;;10.80;99.90;;;;;;5086616;28;20043;-67
2023/10/25 12:21:05;;;;;;;0.30;0.30;;;10.80;99.90;;;;;;5085518;28;20513;-66
2023/10/25 12:23:34;;;;;;;0.93;0.25;;;10.80;99.90;;;;;;5082361;28;20040;-67
2023/10/25 12:26:00;;;;;;;1.58;0.73;;;10.80;99.90;;;;;;5086462;27;20393;-67
2023/10/25 12:28:26;;;;;;;0.10;0.10;;;10.80;99.90;;;;;;5094617;28;20039;-67
2023/10/25 12:30:52;;;;;;;0.30;0.30;;;10.70;99.90;;;;;;5090194;28;20277;-67
2023/10/25 12:33:17;;;;;;;0.20;0.15;;;10.70;99.90;;;;;;5085858;28;20043;-68
2023/10/25 12:35:43;;;;;;;0.28;0.28;;;10.70;99.90;;;;;;5075843;28;20040;-67
2023/10/25 12:38:09;;;;;;;5.25;2.30;;;10.70;99.90;;;;;;5092059;28;20124;-67
2023/10/25 12:40:35;;;;;;;0.30;0.30;;;10.70;99.90;;;;;;5086994;27;20049;-67
2023/10/25 12:43:00;;;;;;;0.15;0.15;;;10.70;99.90;;;;;;5115449;27;20043;-67
2023/10/25 12:45:27;;;;;;;0.10;0.10;;;10.70;99.90;;;;;;5091431;28;20130;-67
2023/10/25 12:47:52;;;;;;;0.90;0.65;;;10.60;99.90;;;;;;5093986;28;20036;-67
2023/10/25 12:50:18;;;;;;;0.10;0.10;;;10.60;99.90;;;;;;5085236;28;20044;-66
2023/10/25 12:52:44;;;;;;;0.45;0.45;;;10.60;99.90;;;;;;5087582;28;20042;-67
2023/10/25 12:55:11;;;;;;;0.10;0.10;;;10.60;99.90;;;;;;5073884;28;20056;-67